Valley View, Texas
Current Conditions -  °F | °C
As of 2:55 AM on Thursday 23 Oct 2014 (Local Time) from KGLE Reporting Station
Drizzle Drizzle  
Wind Chill: 63°   Ceiling: 8000
Heat Index: 63°   Visibility: 10mi
Dew Point: 56°   Wind: 7mph
Humidity: 80%   Direction: 130°SE
Pressure: 30.14"   Gusts: NA
Location:  33.49°N, 97.17°W
Report Text: KGLE 230755Z AUTO 13006KT 10SM -DZ BKN080 OVC110 17/14 A3014 RMK AO2 T01700135
Loading
Personal Weather Stations






























Interactive Weather Map
Tropical Storm Tracking
New forecast layout! Learn more

10-Day Weather Forecast

Advertisements
Track Severe Weather on mobile